Terminal Aerodrome Forecast
Issued by NWS

Home | Current Version | Previous Version | Text Only | Print | Product List | Glossary Off
Versions: 1 2 3 4 5 6 7 8 9 10 11 12 13 14 15 16 17 18 19 20

000
FTUS43 KABR 221733
TAFMBG
TAF
KMBG 221733Z 2218/2318 16012G19KT P6SM SKC
     FM230300 14009KT P6SM OVC070
     FM231200 12009KT P6SM VCSH OVC035
     FM231500 13010KT 5SM -SHRA BR OVC025=

USA.gov is the U.S. government's official web portal to all federal, state and local government web resources and services.